Time;durP1;ratioP1;P1;durP2;ratioP2;P2;SDS_P1;SDS_P2;PMS_P1;PMS_P2;Temp;Humidity;BMP_temperature;BMP_pressure;BME280_temperature;BME280_humidity;BME280_pressure;Samples;Min_cycle;Max_cycle;Signal;HPM_P1;HPM_P2
2023/03/05 00:00:15;;;;;;;;;26.00;21.75;;;;;7.84;54.64;101948.47;5067795;27;45473;-67
2023/03/05 00:02:41;;;;;;;;;27.25;23.50;;;;;7.77;54.61;101941.28;5065418;28;46705;-66
2023/03/05 00:05:07;;;;;;;;;22.50;21.75;;;;;7.81;54.55;101947.50;5073530;28;45797;-67
2023/03/05 00:07:34;;;;;;;;;20.50;20.00;;;;;7.84;54.94;101942.38;5077073;27;45417;-69
2023/03/05 00:10:00;;;;;;;;;24.25;22.50;;;;;7.82;54.85;101942.31;5061624;28;45579;-69
2023/03/05 00:12:28;;;;;;;;;25.00;21.75;;;;;7.79;55.05;101947.44;5057619;28;46287;-68
2023/03/05 00:15:00;;;;;;;;;23.00;20.25;;;;;7.68;55.87;101920.09;5050520;28;45579;-70
2023/03/05 00:17:29;;;;;;;;;25.00;21.25;;;;;7.84;55.40;101938.03;5042186;28;45500;-67
2023/03/05 00:19:56;;;;;;;;;22.00;19.00;;;;;7.84;55.95;101937.16;5060035;28;45641;-68
2023/03/05 00:22:22;;;;;;;;;21.25;19.75;;;;;7.85;56.04;101928.47;5064147;27;45461;-67
2023/03/05 00:24:53;;;;;;;;;26.00;20.00;;;;;7.92;56.30;101934.78;5073278;27;45727;-68
2023/03/05 00:27:19;;;;;;;;;25.00;16.25;;;;;7.96;57.13;101936.66;5066828;28;45489;-66
2023/03/05 00:29:46;;;;;;;;;22.25;18.00;;;;;7.99;56.45;101929.81;5056225;28;45415;-66
2023/03/05 00:32:11;;;;;;;;;18.00;17.75;;;;;8.00;56.35;101928.97;5054176;27;46676;-66
2023/03/05 00:34:44;;;;;;;;;21.25;19.75;;;;;7.96;56.26;101911.44;5058797;28;45667;-69
2023/03/05 00:37:23;;;;;;;;;24.50;19.50;;;;;8.03;56.98;101936.03;5057595;28;45427;-65
2023/03/05 00:39:52;;;;;;;;;21.75;20.25;;;;;7.82;57.35;101902.31;5076817;27;45998;-66
2023/03/05 00:42:17;;;;;;;;;23.25;20.50;;;;;7.83;57.53;101914.50;5075772;27;45725;-70
2023/03/05 00:44:43;;;;;;;;;27.00;21.25;;;;;7.86;57.93;101932.88;5061300;28;45471;-68
2023/03/05 00:47:08;;;;;;;;;20.00;20.00;;;;;7.79;57.99;101923.09;5061451;28;45476;-68
2023/03/05 00:49:34;;;;;;;;;22.00;19.25;;;;;7.71;57.62;101907.19;5076554;28;45265;-68
2023/03/05 00:51:59;;;;;;;;;22.25;17.75;;;;;7.84;57.64;101919.78;5076636;28;46305;-66
2023/03/05 00:54:25;;;;;;;;;21.50;20.25;;;;;7.92;57.62;101930.44;5076941;28;45405;-65
2023/03/05 00:56:50;;;;;;;;;21.25;20.00;;;;;7.86;58.27;101919.84;5053862;28;46092;-66
2023/03/05 00:59:16;;;;;;;;;22.25;21.00;;;;;7.77;58.75;101907.38;5068236;28;45501;-69
2023/03/05 01:01:41;;;;;;;;;26.00;21.50;;;;;7.73;59.13;101902.88;5080263;27;46606;-66
2023/03/05 01:04:07;;;;;;;;;21.50;19.00;;;;;7.45;58.70;101864.63;5081010;28;45658;-66
2023/03/05 01:06:33;;;;;;;;;21.00;19.50;;;;;7.68;59.27;101901.84;5078496;28;45394;-67
2023/03/05 01:08:58;;;;;;;;;19.50;19.50;;;;;7.74;59.56;101911.63;5076801;28;45453;-66
2023/03/05 01:11:24;;;;;;;;;24.50;17.00;;;;;7.72;59.34;101905.47;5075735;27;45547;-65
2023/03/05 01:13:49;;;;;;;;;18.25;16.50;;;;;7.69;59.36;101905.34;5079413;28;45645;-69
2023/03/05 01:16:17;;;;;;;;;19.00;15.75;;;;;7.65;59.17;101887.00;5072223;27;45505;-67
2023/03/05 01:18:42;;;;;;;;;22.00;17.75;;;;;7.70;59.04;101900.19;5066573;27;45558;-67
2023/03/05 01:21:08;;;;;;;;;17.25;17.25;;;;;7.76;59.35;101899.50;5075603;28;45536;-68
2023/03/05 01:23:36;;;;;;;;;18.50;16.25;;;;;7.81;59.06;101903.16;5066860;28;45358;-70
2023/03/05 01:26:02;;;;;;;;;16.25;14.75;;;;;7.88;59.06;101897.28;5057884;28;45590;-66
2023/03/05 01:28:27;;;;;;;;;22.00;16.25;;;;;7.89;59.07;101896.44;5059919;28;45596;-67
2023/03/05 01:30:53;;;;;;;;;17.00;15.25;;;;;7.89;58.90;101887.75;5077263;28;46158;-67
2023/03/05 01:33:19;;;;;;;;;25.25;21.50;;;;;7.94;58.84;101897.47;5067387;28;45571;-69
2023/03/05 01:35:49;;;;;;;;;22.25;21.00;;;;;7.85;59.07;101872.00;5075416;28;45939;-66
2023/03/05 01:38:15;;;;;;;;;21.00;17.50;;;;;7.95;58.78;101880.09;5078928;28;45353;-66
2023/03/05 01:40:42;;;;;;;;;23.50;19.25;;;;;7.96;59.37;101874.94;5079537;28;45487;-68
2023/03/05 01:43:11;;;;;;;;;24.00;20.75;;;;;7.98;59.19;101870.66;5077910;27;45472;-68
2023/03/05 01:45:38;;;;;;;;;17.75;17.50;;;;;7.97;59.61;101865.38;5054220;28;45562;-68
2023/03/05 01:48:04;;;;;;;;;21.50;19.75;;;;;7.90;59.65;101847.75;5055764;28;45542;-65
2023/03/05 01:50:30;;;;;;;;;20.75;20.00;;;;;7.92;59.29;101851.31;5077459;28;45386;-68
2023/03/05 01:53:02;;;;;;;;;24.75;19.75;;;;;8.00;59.52;101858.53;5079689;27;45560;-70
2023/03/05 01:55:29;;;;;;;;;24.25;18.25;;;;;7.94;59.80;101845.28;5079538;27;45447;-67
2023/03/05 01:58:02;;;;;;;;;24.25;19.50;;;;;7.90;59.88;101838.25;5075245;27;45394;-70
2023/03/05 02:00:33;;;;;;;;;21.50;19.00;;;;;7.89;59.83;101827.75;5075807;28;45431;-68
2023/03/05 02:03:03;;;;;;;;;21.50;19.75;;;;;7.92;59.93;101831.31;5077539;28;45425;-68
2023/03/05 02:05:32;;;;;;;;;20.75;17.25;;;;;8.04;59.73;101852.59;5080034;28;45513;-65
2023/03/05 02:08:00;;;;;;;;;22.50;16.75;;;;;7.90;60.07;101821.69;5075738;28;45485;-67
2023/03/05 02:10:49;;;;;;;;;21.75;19.25;;;;;7.89;60.10;101817.31;5067870;28;45904;-66
2023/03/05 02:13:37;;;;;;;;;21.00;17.75;;;;;7.92;60.08;101814.78;5065599;27;45533;-66
2023/03/05 02:16:03;;;;;;;;;22.50;19.75;;;;;8.06;59.50;101834.34;5071164;28;45505;-65
2023/03/05 02:18:29;;;;;;;;;18.75;17.75;;;;;8.03;59.81;101829.94;5068138;28;45550;-66
2023/03/05 02:20:54;;;;;;;;;21.25;19.25;;;;;8.07;60.41;101828.31;5079295;27;45556;-68
2023/03/05 02:23:22;;;;;;;;;17.25;15.50;;;;;8.07;60.46;101825.69;5057991;28;45466;-66
2023/03/05 02:25:48;;;;;;;;;24.25;20.00;;;;;8.03;60.14;101814.28;5070097;28;45483;-69
2023/03/05 02:28:19;;;;;;;;;27.25;22.25;;;;;8.05;59.71;101816.94;5075952;27;45294;-66
2023/03/05 02:30:45;;;;;;;;;25.25;22.50;;;;;8.01;60.08;101802.03;5075246;28;46660;-66
2023/03/05 02:33:13;;;;;;;;;28.00;23.00;;;;;8.10;60.09;101807.50;5064360;28;45476;-66
2023/03/05 02:35:39;;;;;;;;;25.75;23.50;;;;;8.08;60.56;101810.06;5075320;28;45629;-68
2023/03/05 02:38:04;;;;;;;;;25.50;23.00;;;;;8.02;60.78;101796.84;5077197;28;45462;-66
2023/03/05 02:40:30;;;;;;;;;28.00;26.00;;;;;8.04;60.65;101795.19;5058237;28;46601;-66
2023/03/05 02:42:55;;;;;;;;;27.25;23.75;;;;;8.05;60.93;101789.09;5074978;28;45378;-66
2023/03/05 02:45:21;;;;;;;;;21.75;20.75;;;;;7.84;60.77;101754.56;5056302;28;45559;-66
2023/03/05 02:47:47;;;;;;;;;27.25;24.25;;;;;8.02;61.05;101791.63;5075085;28;45590;-68
2023/03/05 02:50:13;;;;;;;;;24.25;24.00;;;;;8.02;61.13;101780.28;5074416;27;45571;-65
2023/03/05 02:52:39;;;;;;;;;27.00;22.00;;;;;8.03;60.59;101790.78;5073720;27;45394;-66
2023/03/05 02:55:05;;;;;;;;;23.75;21.00;;;;;8.00;60.91;101777.66;5075013;27;45447;-72
2023/03/05 02:57:31;;;;;;;;;28.25;21.50;;;;;8.03;61.34;101782.09;5068019;28;45554;-69
2023/03/05 02:59:56;;;;;;;;;22.25;22.25;;;;;8.01;60.63;101775.94;5078716;27;46308;-66
2023/03/05 03:02:22;;;;;;;;;31.50;23.00;;;;;7.99;61.23;101773.25;5074389;28;45485;-66
2023/03/05 03:04:48;;;;;;;;;29.50;25.75;;;;;7.96;60.64;101765.34;5057564;28;45530;-68
2023/03/05 03:07:14;;;;;;;;;27.00;23.00;;;;;7.88;60.94;101748.63;5077447;28;45527;-66
2023/03/05 03:09:41;;;;;;;;;25.00;24.00;;;;;7.99;61.00;101770.66;5074590;27;45501;-68
2023/03/05 03:12:09;;;;;;;;;26.00;20.00;;;;;7.95;61.03;101766.22;5074064;28;46085;-66
2023/03/05 03:14:37;;;;;;;;;26.00;24.00;;;;;8.00;60.97;101762.00;5076576;27;45366;-71
2023/03/05 03:17:05;;;;;;;;;28.50;22.50;;;;;8.03;61.16;101766.44;5067412;28;45505;-70
2023/03/05 03:19:30;;;;;;;;;25.75;18.50;;;;;7.99;61.11;101752.41;5067663;28;46302;-65
2023/03/05 03:21:56;;;;;;;;;23.00;21.00;;;;;8.03;61.05;101759.47;5068517;28;45517;-65
2023/03/05 03:24:22;;;;;;;;;28.25;25.00;;;;;8.04;61.10;101756.03;5078651;28;45343;-65
2023/03/05 03:26:48;;;;;;;;;24.50;20.50;;;;;7.91;61.36;101726.94;5060261;28;45435;-69
2023/03/05 03:29:14;;;;;;;;;31.50;23.75;;;;;8.03;61.05;101745.56;5077766;28;45706;-66
2023/03/05 03:31:41;;;;;;;;;31.00;28.25;;;;;8.04;60.95;101749.91;5093808;27;45353;-67
2023/03/05 03:34:07;;;;;;;;;28.00;22.75;;;;;8.03;60.69;101751.66;5076954;28;45497;-69
2023/03/05 03:36:33;;;;;;;;;30.00;24.00;;;;;7.97;61.24;101730.63;5074444;28;45458;-68
2023/03/05 03:38:59;;;;;;;;;32.50;23.75;;;;;7.99;61.55;101744.56;5074270;28;45580;-66
2023/03/05 03:41:24;;;;;;;;;27.25;25.25;;;;;7.91;61.45;101737.38;5074192;28;45584;-67
2023/03/05 03:43:50;;;;;;;;;25.25;22.75;;;;;7.82;61.93;101738.00;5073755;27;45382;-66
2023/03/05 03:46:15;;;;;;;;;24.00;22.50;;;;;7.77;62.12;101727.41;5074160;28;45660;-67
2023/03/05 03:48:41;;;;;;;;;22.75;18.25;;;;;7.85;61.93;101743.28;5051612;28;47589;-66
2023/03/05 03:51:07;;;;;;;;;26.75;22.50;;;;;7.81;61.52;101726.69;5055482;28;45373;-69
2023/03/05 03:53:33;;;;;;;;;23.00;20.50;;;;;7.91;61.42;101730.44;5054761;28;45702;-68
2023/03/05 03:56:01;;;;;;;;;22.75;20.75;;;;;7.86;61.52;101716.38;5057343;28;45453;-65
2023/03/05 03:58:26;;;;;;;;;19.75;18.25;;;;;7.90;61.45;101717.34;5077595;27;46142;-67
2023/03/05 04:00:52;;;;;;;;;20.75;16.75;;;;;7.87;61.20;101718.13;5062119;28;45408;-69
2023/03/05 04:03:17;;;;;;;;;20.00;18.75;;;;;7.92;61.49;101721.75;5070442;28;45478;-68
2023/03/05 04:05:43;;;;;;;;;26.00;22.50;;;;;7.94;62.15;101720.06;5055565;28;45485;-66
2023/03/05 04:08:10;;;;;;;;;21.75;20.25;;;;;7.85;62.23;101719.81;5072331;28;45975;-66
2023/03/05 04:10:38;;;;;;;;;23.75;19.75;;;;;7.84;61.92;101718.94;5061024;28;45599;-71
2023/03/05 04:13:05;;;;;;;;;24.50;20.00;;;;;7.77;62.13;101710.91;5052037;28;45511;-70
2023/03/05 04:15:32;;;;;;;;;20.50;17.00;;;;;7.76;62.46;101714.31;5077350;28;45689;-67
2023/03/05 04:18:01;;;;;;;;;26.25;22.50;;;;;7.64;62.62;101705.31;5075505;27;45596;-68
2023/03/05 04:20:32;;;;;;;;;20.50;17.75;;;;;7.62;61.97;101698.31;5073608;27;45549;-69
2023/03/05 04:22:59;;;;;;;;;21.75;20.25;;;;;7.78;61.82;101718.78;5073667;28;45604;-69
2023/03/05 04:25:25;;;;;;;;;20.00;16.25;;;;;7.80;61.91;101716.19;5071101;27;45494;-66
2023/03/05 04:27:55;;;;;;;;;19.75;18.50;;;;;7.77;62.15;101703.06;5064623;27;45433;-71
2023/03/05 04:30:24;;;;;;;;;20.00;18.00;;;;;7.84;61.67;101721.53;5072341;28;45397;-69
2023/03/05 04:32:50;;;;;;;;;23.25;19.50;;;;;7.82;62.33;101714.50;5076770;27;45371;-66
2023/03/05 04:35:20;;;;;;;;;25.25;20.75;;;;;7.77;62.33;101713.50;5056913;28;45475;-70
2023/03/05 04:37:51;;;;;;;;;28.50;23.25;;;;;7.69;62.69;101705.47;5059982;28;46001;-67
2023/03/05 04:40:18;;;;;;;;;26.50;22.75;;;;;7.55;62.28;101689.41;5073519;28;45462;-69
2023/03/05 04:42:47;;;;;;;;;28.50;22.00;;;;;7.59;62.67;101701.72;5074516;28;45564;-67
2023/03/05 04:45:16;;;;;;;;;23.00;21.50;;;;;7.57;63.39;101698.16;5078248;27;45449;-67
2023/03/05 04:47:44;;;;;;;;;23.25;22.75;;;;;7.59;63.50;101701.72;5075887;28;46640;-68
2023/03/05 04:50:11;;;;;;;;;33.00;21.25;;;;;7.58;63.09;101697.31;5077596;27;45480;-68
2023/03/05 04:52:39;;;;;;;;;23.50;21.00;;;;;7.60;62.89;101699.97;5077103;27;45492;-68
2023/03/05 04:55:05;;;;;;;;;26.50;22.25;;;;;7.52;62.92;101681.50;5055108;28;45422;-67
2023/03/05 04:57:31;;;;;;;;;23.75;20.25;;;;;7.51;63.51;101677.13;5067612;28;46622;-68
2023/03/05 04:59:57;;;;;;;;;24.00;21.50;;;;;7.58;63.30;101686.00;5054818;28;45871;-68
2023/03/05 05:02:22;;;;;;;;;21.25;16.75;;;;;7.58;62.80;101683.41;5072935;27;45481;-70
2023/03/05 05:04:51;;;;;;;;;21.75;17.75;;;;;7.64;62.97;101686.19;5072608;27;45799;-66
2023/03/05 05:07:17;;;;;;;;;20.00;18.25;;;;;7.61;62.77;101671.31;5072792;27;46218;-67
2023/03/05 05:09:42;;;;;;;;;20.00;17.25;;;;;7.70;62.58;101675.94;5076846;28;45414;-66
2023/03/05 05:12:09;;;;;;;;;20.50;19.00;;;;;7.72;62.52;101678.59;5055598;28;45532;-69
2023/03/05 05:14:35;;;;;;;;;20.25;16.75;;;;;7.77;62.47;101671.78;5050849;28;45441;-68
2023/03/05 05:17:04;;;;;;;;;19.50;17.25;;;;;7.81;62.41;101665.81;5067998;28;46553;-68
2023/03/05 05:19:33;;;;;;;;;18.00;16.75;;;;;7.80;62.42;101662.28;5055792;27;45419;-65
2023/03/05 05:22:00;;;;;;;;;24.50;20.00;;;;;7.81;62.52;101660.59;5058980;28;45452;-70
2023/03/05 05:24:25;;;;;;;;;25.00;18.25;;;;;7.72;62.47;101653.38;5065693;28;45682;-69
2023/03/05 05:26:53;;;;;;;;;22.75;18.50;;;;;7.75;62.80;101671.72;5069717;27;45540;-68
2023/03/05 05:29:19;;;;;;;;;24.50;22.25;;;;;7.74;62.49;101662.16;5071751;27;45316;-70
2023/03/05 05:31:46;;;;;;;;;24.50;18.00;;;;;7.72;62.53;101653.38;5059749;27;45451;-69
2023/03/05 05:34:15;;;;;;;;;23.00;19.25;;;;;7.67;62.86;101659.31;5057676;28;45551;-68
2023/03/05 05:36:41;;;;;;;;;20.00;19.00;;;;;7.61;62.82;101658.28;5063774;28;46385;-69
2023/03/05 05:39:06;;;;;;;;;21.25;19.75;;;;;7.67;62.62;101654.09;5061639;28;45497;-66
2023/03/05 05:41:32;;;;;;;;;22.50;17.75;;;;;7.64;62.84;101647.97;5063222;28;45413;-68
2023/03/05 05:43:57;;;;;;;;;21.75;17.25;;;;;7.67;63.31;101655.00;5063021;27;45747;-65
2023/03/05 05:46:23;;;;;;;;;22.75;20.25;;;;;7.63;63.31;101655.72;5063804;28;45489;-65
2023/03/05 05:48:50;;;;;;;;;25.50;20.75;;;;;7.65;63.00;101649.72;5074288;28;45814;-71
2023/03/05 05:51:19;;;;;;;;;22.75;17.75;;;;;7.70;63.21;101660.28;5055044;28;45935;-65
2023/03/05 05:53:45;;;;;;;;;20.50;16.50;;;;;7.71;62.62;101650.72;5067286;28;45563;-65
2023/03/05 05:56:12;;;;;;;;;20.75;16.50;;;;;7.77;62.31;101653.53;5063668;28;45578;-67
2023/03/05 05:58:40;;;;;;;;;18.75;16.75;;;;;7.76;62.17;101642.22;5056002;28;45568;-67
2023/03/05 06:01:16;;;;;;;;;18.50;17.50;;;;;7.81;62.52;101642.34;5060619;28;45439;-65
2023/03/05 06:03:42;;;;;;;;;18.00;16.25;;;;;7.79;62.60;101642.28;5071487;28;45872;-66
2023/03/05 06:06:10;;;;;;;;;16.50;14.50;;;;;7.79;62.14;101636.19;5059544;28;45470;-68
2023/03/05 06:08:35;;;;;;;;;17.00;15.50;;;;;7.80;62.21;101643.16;5059915;28;45474;-68
2023/03/05 06:11:01;;;;;;;;;16.00;16.00;;;;;7.86;62.26;101649.44;5048853;28;45761;-68
2023/03/05 06:13:27;;;;;;;;;16.25;14.00;;;;;7.84;62.02;101639.81;5049099;28;45367;-69
2023/03/05 06:15:57;;;;;;;;;19.25;15.00;;;;;7.89;62.09;101646.03;5055375;28;45843;-67
2023/03/05 06:18:23;;;;;;;;;14.25;14.25;;;;;7.82;61.84;101631.94;5064976;27;45481;-68
2023/03/05 06:21:01;;;;;;;;;17.00;13.50;;;;;7.89;61.93;101639.94;5056336;28;45388;-69
2023/03/05 06:23:28;;;;;;;;;20.75;14.25;;;;;7.93;61.93;101644.41;5058688;28;45494;-67
2023/03/05 06:25:59;;;;;;;;;21.50;18.50;;;;;7.85;62.16;101638.94;5044209;28;47809;-67
2023/03/05 06:28:25;;;;;;;;;14.25;14.25;;;;;7.81;62.53;101637.13;5058972;28;45487;-69
2023/03/05 06:31:15;;;;;;;;;17.00;13.00;;;;;7.84;62.08;101640.69;5059870;28;45655;-69
2023/03/05 06:33:41;;;;;;;;;16.25;14.25;;;;;7.78;62.33;101630.09;5059749;28;45549;-66
2023/03/05 06:36:14;;;;;;;;;11.25;11.00;;;;;7.71;61.95;101617.75;5055583;28;45387;-68
2023/03/05 06:38:40;;;;;;;;;14.75;13.00;;;;;7.83;61.85;101631.09;5054170;28;45442;-70
2023/03/05 06:41:10;;;;;;;;;14.50;11.25;;;;;7.76;61.68;101623.03;5057775;28;45604;-69
2023/03/05 06:43:38;;;;;;;;;20.25;13.75;;;;;7.79;61.74;101626.63;5054808;28;45837;-67
2023/03/05 06:46:10;;;;;;;;;14.50;13.75;;;;;7.82;61.75;101633.66;5054842;28;45661;-69
2023/03/05 06:48:36;;;;;;;;;16.25;13.25;;;;;7.94;61.96;101648.78;5054182;28;45522;-69
2023/03/05 06:51:02;;;;;;;;;13.25;13.25;;;;;7.88;61.61;101638.16;5053993;28;45567;-68
2023/03/05 06:53:31;;;;;;;;;7.00;6.25;;;;;7.92;61.19;101637.41;5050392;28;45483;-68
2023/03/05 06:56:00;;;;;;;;;13.50;12.50;;;;;7.93;61.58;101641.78;5054250;28;45596;-67
2023/03/05 06:58:25;;;;;;;;;16.25;13.00;;;;;7.88;61.69;101632.94;5054052;28;45692;-68
2023/03/05 07:00:51;;;;;;;;;18.50;16.25;;;;;7.88;61.56;101643.38;5053809;28;45806;-66
2023/03/05 07:03:16;;;;;;;;;20.75;18.00;;;;;7.78;61.50;101619.66;5053609;28;45463;-67
2023/03/05 07:05:43;;;;;;;;;21.00;17.25;;;;;7.82;61.73;101626.72;5053722;28;45395;-67
2023/03/05 07:08:09;;;;;;;;;18.25;14.25;;;;;7.88;61.56;101628.63;5058040;28;45339;-64
2023/03/05 07:10:42;;;;;;;;;13.25;13.25;;;;;7.92;61.47;101640.88;5056579;28;45516;-67
2023/03/05 07:13:09;;;;;;;;;20.25;17.50;;;;;7.95;61.15;101641.00;5053848;28;45610;-70
2023/03/05 07:15:38;;;;;;;;;20.75;17.75;;;;;7.78;61.70;101623.97;5053397;28;46128;-69
2023/03/05 07:18:04;;;;;;;;;23.00;19.00;;;;;7.81;62.18;101635.41;5056471;28;45372;-69
2023/03/05 07:20:32;;;;;;;;;19.75;15.50;;;;;7.76;61.84;101629.16;5053949;28;45338;-65
2023/03/05 07:22:58;;;;;;;;;21.75;18.75;;;;;7.71;61.91;101620.34;5068705;28;45672;-67
2023/03/05 07:25:23;;;;;;;;;19.75;16.00;;;;;7.89;61.86;101642.53;5065823;28;46564;-68
2023/03/05 07:27:49;;;;;;;;;19.00;16.50;;;;;7.90;62.26;101641.69;5060116;28;45480;-69
2023/03/05 07:30:15;;;;;;;;;27.00;19.50;;;;;7.83;61.98;101643.25;5075457;28;46135;-68
2023/03/05 07:32:41;;;;;;;;;22.25;18.75;;;;;7.80;62.00;101627.50;5074488;27;46136;-69
2023/03/05 07:35:07;;;;;;;;;24.25;18.00;;;;;7.84;62.48;101634.59;5073674;28;46606;-69
2023/03/05 07:37:33;;;;;;;;;22.50;21.50;;;;;7.70;62.48;101636.81;5073903;27;45565;-69
2023/03/05 07:39:58;;;;;;;;;22.00;17.00;;;;;7.74;62.51;101641.28;5052125;28;45552;-66
2023/03/05 07:42:24;;;;;;;;;19.25;19.00;;;;;7.67;62.67;101635.84;5061722;28;45378;-67
2023/03/05 07:44:49;;;;;;;;;21.00;17.75;;;;;7.57;62.46;101625.16;5062796;28;46079;-66
2023/03/05 07:47:15;;;;;;;;;16.50;15.00;;;;;7.63;62.96;101640.09;5053438;28;45352;-66
2023/03/05 07:49:41;;;;;;;;;27.25;19.75;;;;;7.72;62.73;101639.47;5055283;27;45541;-66
2023/03/05 07:52:07;;;;;;;;;25.50;16.50;;;;;7.67;62.40;101630.66;5074641;28;45346;-65
2023/03/05 07:54:36;;;;;;;;;23.75;19.00;;;;;7.79;62.09;101630.97;5076179;28;46191;-65
2023/03/05 07:57:06;;;;;;;;;21.00;18.25;;;;;7.87;62.26;101642.50;5073993;28;45434;-66
2023/03/05 07:59:32;;;;;;;;;20.00;19.00;;;;;7.80;62.13;101614.47;5071770;28;45473;-67
2023/03/05 08:01:58;;;;;;;;;25.50;18.50;;;;;7.93;61.45;101634.84;5061966;28;45475;-65
2023/03/05 08:04:26;;;;;;;;;28.50;25.75;;;;;7.93;61.82;101637.47;5075507;27;47564;-67
2023/03/05 08:06:52;;;;;;;;;29.25;24.75;;;;;7.88;61.82;101641.66;5073601;27;45523;-66
2023/03/05 08:09:17;;;;;;;;;25.25;24.50;;;;;7.73;62.14;101629.06;5073856;28;45510;-65
2023/03/05 08:11:43;;;;;;;;;28.25;24.00;;;;;7.74;62.44;101635.19;5073400;27;46135;-67
2023/03/05 08:14:10;;;;;;;;;28.25;25.25;;;;;7.73;62.77;101631.66;5057518;28;47181;-67
2023/03/05 08:16:38;;;;;;;;;31.75;25.00;;;;;7.76;62.68;101631.78;5076935;28;45584;-66
2023/03/05 08:19:03;;;;;;;;;23.00;18.50;;;;;7.80;62.84;101632.72;5051767;28;45388;-67
2023/03/05 08:21:33;;;;;;;;;28.50;20.25;;;;;7.82;62.94;101625.84;5069280;27;45555;-66
2023/03/05 08:24:04;;;;;;;;;28.25;22.25;;;;;7.85;62.92;101615.47;5073533;27;45579;-67
2023/03/05 08:26:31;;;;;;;;;28.00;25.75;;;;;7.82;63.06;101620.63;5073480;27;45826;-65
2023/03/05 08:28:57;;;;;;;;;27.50;22.75;;;;;7.61;62.81;101595.72;5073328;27;45515;-66
2023/03/05 08:31:24;;;;;;;;;26.25;22.50;;;;;7.69;63.02;101618.50;5076747;28;45418;-67
2023/03/05 08:33:52;;;;;;;;;27.25;22.75;;;;;7.69;63.12;101618.50;5058768;28;47972;-65
2023/03/05 08:36:18;;;;;;;;;22.00;18.25;;;;;7.68;63.38;101621.97;5066420;28;45480;-66
2023/03/05 08:38:45;;;;;;;;;20.75;20.00;;;;;7.63;63.38;101622.72;5053221;28;45347;-65
2023/03/05 08:41:11;;;;;;;;;23.25;23.00;;;;;7.56;63.43;101596.44;5041109;28;45568;-67
2023/03/05 08:43:39;;;;;;;;;21.25;18.25;;;;;7.72;63.31;101613.41;5060520;28;45824;-65
2023/03/05 08:46:04;;;;;;;;;24.75;21.25;;;;;7.64;63.45;101601.03;5045529;28;45392;-67
2023/03/05 08:48:31;;;;;;;;;26.75;20.75;;;;;7.70;63.32;101615.06;5059392;28;45504;-66
2023/03/05 08:50:57;;;;;;;;;22.50;20.75;;;;;7.73;63.17;101617.75;5056129;28;45504;-65
2023/03/05 08:53:23;;;;;;;;;23.25;19.25;;;;;7.70;63.68;101615.94;5060542;28;46598;-66
2023/03/05 08:55:54;;;;;;;;;19.75;18.50;;;;;7.57;63.36;101593.88;5060396;28;45688;-66
2023/03/05 08:58:19;;;;;;;;;27.00;23.25;;;;;7.71;63.53;101612.53;5060404;28;45375;-66
2023/03/05 09:00:45;;;;;;;;;33.25;27.50;;;;;7.59;63.54;101591.28;5060661;28;45529;-65
2023/03/05 09:03:12;;;;;;;;;28.25;22.25;;;;;7.49;62.98;101579.72;5077058;28;46577;-66
2023/03/05 09:05:38;;;;;;;;;29.00;25.50;;;;;7.56;63.23;101594.69;5076111;27;45511;-66
2023/03/05 09:08:03;;;;;;;;;26.25;22.00;;;;;7.59;63.59;101601.72;5075527;28;45569;-67
2023/03/05 09:10:29;;;;;;;;;25.25;23.00;;;;;7.53;63.21;101580.72;5055901;28;45453;-66
2023/03/05 09:12:55;;;;;;;;;29.50;22.00;;;;;7.61;62.52;101590.50;5073323;28;45486;-65
2023/03/05 09:15:20;;;;;;;;;29.25;23.75;;;;;7.70;62.50;101589.88;5079916;28;45771;-65
2023/03/05 09:17:46;;;;;;;;;30.00;26.50;;;;;7.81;62.32;101598.00;5056902;28;45462;-66
2023/03/05 09:20:13;;;;;;;;;33.25;25.00;;;;;7.63;61.52;101561.88;5074365;28;45506;-67
2023/03/05 09:22:39;;;;;;;;;21.50;20.75;;;;;7.74;61.28;101581.31;5078511;28;45465;-65
2023/03/05 09:25:05;;;;;;;;;22.00;18.75;;;;;7.89;61.37;101609.50;5061164;28;45774;-66
2023/03/05 09:27:35;;;;;;;;;27.75;24.00;;;;;7.93;61.07;101610.50;5076072;28;45460;-66
2023/03/05 09:30:01;;;;;;;;;24.25;20.00;;;;;7.85;61.05;101582.47;5076978;28;45478;-66
2023/03/05 09:32:27;;;;;;;;;31.50;27.00;;;;;7.83;60.51;101594.59;5076098;27;45393;-66
2023/03/05 09:34:52;;;;;;;;;33.50;27.50;;;;;7.70;60.78;101584.66;5069751;28;45330;-67
2023/03/05 09:37:18;;;;;;;;;33.25;29.00;;;;;7.82;60.41;101594.53;5060171;28;45342;-67
2023/03/05 09:39:44;;;;;;;;;23.50;22.00;;;;;7.77;60.56;101583.97;5059133;28;45342;-67
2023/03/05 09:42:42;;;;;;;;;31.00;25.25;;;;;7.80;60.43;101589.28;5075804;28;46297;-68
2023/03/05 09:45:25;;;;;;;;;25.00;21.25;;;;;7.82;60.29;101590.19;5065802;28;45440;-66
2023/03/05 09:48:14;;;;;;;;;26.50;21.25;;;;;7.83;60.52;101586.78;5076776;28;45438;-66
2023/03/05 09:50:43;;;;;;;;;19.50;18.50;;;;;7.77;59.93;101570.94;5064075;28;45606;-67
2023/03/05 09:53:29;;;;;;;;;23.75;20.00;;;;;7.90;60.02;101572.19;5053922;28;47169;-66
2023/03/05 09:56:00;;;;;;;;;28.00;21.25;;;;;7.93;59.92;101571.38;5074842;27;45801;-66
2023/03/05 09:59:07;;;;;;;;;29.50;23.25;;;;;7.98;59.73;101561.94;5039192;28;45700;-68
2023/03/05 10:01:40;;;;;;;;;23.25;16.75;;;;;8.06;59.52;101563.88;5053789;28;45363;-68
2023/03/05 10:04:19;;;;;;;;;22.75;20.75;;;;;8.12;59.28;101557.94;5048516;28;47675;-68
2023/03/05 10:07:01;;;;;;;;;28.25;22.00;;;;;8.11;59.35;101542.25;5070463;28;45567;-66
2023/03/05 10:09:50;;;;;;;;;25.25;19.75;;;;;8.19;59.33;101539.00;5057466;27;46298;-67
2023/03/05 10:12:31;;;;;;;;;13.00;8.75;;;;;8.27;59.05;101541.78;5050756;28;45478;-66
2023/03/05 10:15:01;;;;;;;;;23.25;18.75;;;;;8.28;58.42;101522.66;5076397;27;46161;-67
2023/03/05 10:17:35;;;;;;;;;26.25;19.75;;;;;8.42;58.68;101539.59;5074913;27;45389;-66
2023/03/05 10:20:13;;;;;;;;;18.00;14.75;;;;;8.53;58.07;101536.34;5075045;28;45524;-65
2023/03/05 10:23:23;;;;;;;;;22.00;16.50;;;;;8.59;59.13;101537.34;5046825;28;45756;-66
2023/03/05 10:26:04;;;;;;;;;18.25;13.00;;;;;8.69;58.22;101528.88;5068409;28;46412;-68
2023/03/05 10:28:54;;;;;;;;;17.50;14.00;;;;;8.75;57.62;101530.72;5062338;28;45370;-67
2023/03/05 10:31:40;;;;;;;;;12.50;12.50;;;;;8.77;56.88;101515.97;5061597;28;45870;-65
2023/03/05 10:34:29;;;;;;;;;16.50;14.00;;;;;8.82;57.17;101526.53;5061941;28;45462;-66
2023/03/05 10:37:13;;;;;;;;;15.00;13.00;;;;;8.82;56.71;101516.06;5064017;28;45312;-66
2023/03/05 10:39:41;;;;;;;;;15.75;13.25;;;;;8.81;56.45;101517.81;5067214;28;45889;-67
2023/03/05 10:42:19;;;;;;;;;19.00;15.75;;;;;8.82;56.49;101511.72;5067433;28;45824;-68
2023/03/05 10:44:56;;;;;;;;;23.00;18.50;;;;;8.74;56.14;101509.81;5072102;27;45446;-67
2023/03/05 10:47:30;;;;;;;;;20.75;18.50;;;;;8.56;56.75;101499.84;5075546;28;46348;-66
2023/03/05 10:49:57;;;;;;;;;20.25;18.50;;;;;8.56;56.70;101513.75;5076573;28;45406;-66
2023/03/05 10:52:34;;;;;;;;;25.25;21.75;;;;;8.57;56.52;101509.44;5073243;28;45423;-66
2023/03/05 10:54:59;;;;;;;;;22.00;20.25;;;;;8.59;56.07;101505.13;5073011;28;45869;-66
2023/03/05 10:57:29;;;;;;;;;23.25;18.75;;;;;8.64;56.00;101513.97;5073500;28;46626;-69
2023/03/05 11:00:12;;;;;;;;;21.25;15.50;;;;;8.66;55.26;101507.00;5068929;28;45521;-70
2023/03/05 11:02:56;;;;;;;;;19.25;15.00;;;;;8.71;55.55;101502.81;5051482;28;45805;-69
2023/03/05 11:05:38;;;;;;;;;19.75;15.75;;;;;8.63;55.19;101483.47;5057808;28;45397;-68
2023/03/05 11:08:25;;;;;;;;;19.00;18.00;;;;;8.70;55.06;101495.78;5067246;28;45543;-67
2023/03/05 11:11:05;;;;;;;;;16.00;15.25;;;;;8.61;55.39;101487.75;5067566;27;45453;-69
2023/03/05 11:13:32;;;;;;;;;16.75;14.25;;;;;8.68;54.70;101495.78;5049979;28;45358;-68
2023/03/05 11:16:00;;;;;;;;;15.50;11.50;;;;;8.66;55.03;101486.13;5072340;28;45290;-68
2023/03/05 11:18:27;;;;;;;;;17.00;14.50;;;;;8.75;54.95;101485.44;5072224;28;45630;-69
2023/03/05 11:21:07;;;;;;;;;22.75;17.25;;;;;8.77;54.90;101489.84;5072166;28;45888;-67
2023/03/05 11:23:32;;;;;;;;;16.25;13.50;;;;;8.79;54.79;101476.84;5076122;28;45534;-67